Nearby METAR Reports

 

K6I2 - Springfield, Kentucky, USA
Distance from station: SSE 22mi, 36km
Updated: 12/01/2021 6:55pm
Overcast
Overcast
 Wind from SSW
Wind: SSW 6 mph , 9 km/h
Temperature: 55°F , 13°C
Dew Point: 48°F , 9°C
Humidity: 77%
Barometer: 29.97 inHg , 1014.9 hPa
Clouds: Overcast
Visibility: 10 miles , 16 km
Cloud details: Overcast 3000 ft
2021/12/01 23:55 K6I2 012355Z AUTO 21005KT 10SM OVC030 13/09 A2997 RMK AO2
KLOU - Louisville/Bowmn, Kentucky, USA
Distance from station: NW 25mi, 40km
Updated: 12/01/2021 6:53pm
Few Clouds
Few Clouds
 Wind from SW
Wind: SW 9 mph , 15 km/h
Temperature: 55°F , 13°C
Dew Point: 46°F , 8°C
Humidity: 72%
Barometer: 29.95 inHg , 1014.2 hPa
Clouds: Few Clouds
Visibility: 10 miles , 16 km
Cloud details: Few Clouds 3000 ft
2021/12/01 23:53 KLOU 012353Z 23008KT 10SM FEW030 13/08 A2995 RMK AO2 SLP143 60000 T01280078 10156 20122 53018
 
KSDF - Louisville, Kentucky, USA
Distance from station: NW 25mi, 41km
Updated: 12/01/2021 6:56pm
Few Clouds
Few Clouds
 Wind from WSW
Wind: WSW 9 mph , 15 km/h
Temperature: 55°F , 13°C
Dew Point: 46°F , 8°C
Humidity: 72%
Barometer: 29.95 inHg , 1014.2 hPa
Clouds: Few Clouds
Visibility: 10 miles , 16 km
Cloud details: Few Clouds 3500 ft
2021/12/01 23:56 KSDF 012356Z 24008KT 10SM FEW035 13/08 A2995 RMK AO2 SLP143 T01330083 10161 20122 53019
KEKX - Elizabeth, Kentucky, USA
Distance from station: WSW 30mi, 48km
Updated: 12/01/2021 7:15pm
Mostly cloudy
Mostly cloudy
 Wind from calm
Wind: Calm
Temperature: 52°F , 11°C
Dew Point: 46°F , 8°C
Humidity: 82%
Barometer: 29.98 inHg , 1015.2 hPa
Clouds: Mostly cloudy
Visibility: 10 miles , 16 km
Cloud details: Partly cloudy 2800 ft
Mostly cloudy 3900 ft
2021/12/02 00:15 KEKX 020015Z AUTO 00000KT 10SM SCT028 BKN039 11/08 A2998 RMK AO2 T01130081
 
KFFT - Frankfort, Kentucky, USA
Distance from station: NE 32mi, 51km
Updated: 12/01/2021 6:53pm
Mostly cloudy
Mostly cloudy
 Wind from WSW
Wind: WSW 7 mph , 11 km/h
Temperature: 55°F , 13°C
Dew Point: 46°F , 8°C
Humidity: 72%
Barometer: 29.94 inHg , 1013.9 hPa
Clouds: Mostly cloudy
Visibility: 10 miles , 16 km
Cloud details: Few Clouds 3700 ft
Mostly cloudy 5500 ft
Mostly cloudy 8000 ft
2021/12/01 23:53 KFFT 012353Z AUTO 24006KT 10SM FEW037 BKN055 BKN080 13/08 A2994 RMK AO2 SLP140 T01330083 10156 20117 53013
KFTK - Fort Knox/Godman, Kentucky, USA
Distance from station: W 32mi, 51km
Updated: 12/01/2021 7:06pm
Overcast
Overcast
 Wind from WSW
Wind: WSW 5 mph , 7 km/h
Temperature: 54°F , 12°C
Dew Point: 46°F , 8°C
Humidity: 77%
Barometer: 29.96 inHg , 1014.6 hPa
Clouds: Overcast
Visibility: 10 miles , 16 km
Cloud details: Mostly cloudy 2900 ft
Overcast 5500 ft
2021/12/02 00:06 KFTK 020006Z AUTO 24004KT 10SM BKN029 OVC055 12/08 A2996 RMK AO2 CIG 029V055 BKN V SCT SLP149
 
KDVK - Danville, Kentucky, USA
Distance from station: SE 42mi, 67km
Updated: 12/01/2021 6:55pm
Overcast
Overcast
 Wind from WSW
Wind: WSW 9 mph , 15 km/h
Temperature: 55°F , 13°C
Dew Point: 45°F , 7°C
Humidity: 67%
Barometer: 29.98 inHg , 1015.2 hPa
Clouds: Overcast
Visibility: 10 miles , 16 km
Cloud details: Mostly cloudy 3900 ft
Mostly cloudy 6000 ft
Overcast 10000 ft
2021/12/01 23:55 KDVK 012355Z AUTO 24008KT 10SM BKN039 BKN060 OVC100 13/07 A2998 RMK AO2
KLEX - Lexington, Kentucky, USA
Distance from station: E 43mi, 70km
Updated: 12/01/2021 6:54pm
Mostly cloudy
Mostly cloudy
 Wind from SW
Wind: SW 7 mph , 11 km/h
Temperature: 54°F , 12°C
Dew Point: 45°F , 7°C
Humidity: 72%
Barometer: 29.95 inHg , 1014.2 hPa
Clouds: Mostly cloudy
Visibility: 10 miles , 16 km
Cloud details: Few Clouds 3600 ft
Partly cloudy 6500 ft
Mostly cloudy 9500 ft
2021/12/01 23:54 KLEX 012354Z 22006KT 10SM FEW036 SCT065 BKN095 12/07 A2995 RMK AO2 SLP143 60000 T01220067 10144 20117 51017